Date,TemperatureHighF,TemperatureAvgF,TemperatureLowF,DewpointHighF,DewpointAvgF,DewpointLowF,HumidityHigh,HumidityAvg,HumidityLow,PressureMaxIn,PressureMinIn,WindSpeedMaxMPH,WindSpeedAvgMPH,GustSpeedMaxMPH,PrecipitationSumIn
2013-1-1,43.8,28.5,38.6,40.0,-6.4,-99.9,88,57,82,29.77,29.23,15,-314,26,0.00
2013-1-2,53.9,35.2,43.3,52.0,1.8,-99.9,94,62,87,29.96,29.74,14,-314,23,0.00
2013-1-3,56.3,38.6,50.2,53.0,9.3,-99.9,93,65,86,30.21,29.96,11,-268,21,0.00
2013-1-4,51.8,37.0,45.2,48.0,10.0,-99.9,95,67,84,30.24,30.13,11,-246,18,0.00
2013-1-5,53.1,36.7,43.7,50.0,6.9,-99.9,95,65,85,30.13,30.02,21,-272,32,0.00
2013-1-6,53.4,17.9,47.5,48.0,-50.0,-99.9,92,26,59,30.13,29.88,17,-650,29,0.00
2013-1-7,54.5,24.5,52.8,51.0,-31.0,-99.9,91,41,88,29.88,29.68,23,-536,30,0.00
2013-1-8,48.7,26.6,39.7,46.0,-16.7,-99.9,92,52,86,29.94,29.67,9,-413,14,0.00
2013-1-9,53.2,30.7,33.6,42.0,4.4,-99.9,92,65,57,29.92,29.73,4,-227,5,0.00
2013-1-10,57.7,18.8,32.2,54.0,-38.1,-99.9,94,39,72,29.73,29.59,9,-552,15,0.04
2013-1-11,64.1,28.0,42.5,48.0,-13.2,-99.9,95,53,56,29.73,29.47,14,-387,18,0.02
2013-1-12,43.9,14.0,42.3,42.0,-54.1,-99.9,95,30,86,29.74,29.44,15,-671,17,0.02
2013-1-13,39.1,13.2,37.5,37.0,-53.4,-99.9,94,31,79,29.84,29.74,10,-654,17,0.02
2013-1-14,41.9,22.8,34.7,39.0,-19.5,-99.9,93,53,79,29.78,29.56,21,-401,22,0.00
2013-1-15,41.1,30.7,34.5,36.0,8.0,-99.9,94,69,82,29.62,29.42,12,-195,19,0.00
2013-1-16,42.1,12.3,39.2,39.0,-58.2,-99.9,92,26,78,29.54,29.40,10,-693,22,0.09
2013-1-17,54.9,28.1,41.6,53.0,-12.9,-99.9,94,53,79,29.54,29.21,17,-386,36,0.01
2013-1-18,41.4,14.6,35.6,39.0,-47.2,-99.9,94,36,87,29.20,28.91,19,-606,35,0.09
2013-1-19,36.2,20.1,34.5,33.0,-25.5,-99.9,94,49,77,29.27,28.97,9,-433,14,0.01
2013-1-20,35.9,10.4,34.1,32.0,-61.1,-99.9,88,25,77,29.26,29.06,11,-700,18,0.01
2013-1-21,35.2,11.0,32.8,35.0,-57.1,-99.9,97,31,95,29.07,29.01,5,-676,9,0.17
2013-1-22,43.5,12.0,31.4,41.0,-53.9,-99.9,95,32,87,29.43,29.05,3,-651,4,0.03
2013-1-23,43.7,22.8,36.7,42.0,-18.8,-99.9,93,52,81,29.53,29.39,8,-392,15,0.00
2013-1-24,42.4,29.1,-90.0,38.0,4.0,-99.9,90,67,78,29.68,29.54,21,-220,25,0.00
2013-1-25,46.3,31.1,40.5,46.0,0.5,-99.9,98,66,83,29.59,29.02,29,-285,44,0.23
2013-1-26,54.1,32.3,39.3,51.0,-1.5,-99.9,97,62,82,29.39,28.66,29,-314,43,0.13
2013-1-27,51.8,25.4,35.5,51.0,-10.9,-99.9,97,58,77,29.15,28.66,33,-336,39,0.00
2013-1-28,50.6,33.6,36.5,47.0,3.5,-99.9,97,61,70,29.21,28.79,33,-254,51,0.00
2013-1-29,56.6,32.3,45.4,53.0,-5.8,-99.9,97,56,80,29.13,28.82,25,-349,43,0.00
2013-1-30,49.0,27.7,42.1,42.0,-14.3,-99.9,86,49,69,29.50,29.03,32,-374,45,0.00
2013-1-31,49.9,37.1,40.4,44.0,15.9,-99.9,96,68,72,29.45,29.20,25,-157,42,0.03